Time;durP1;ratioP1;P1;durP2;ratioP2;P2;SDS_P1;SDS_P2;PMS_P1;PMS_P2;Temp;Humidity;BMP_temperature;BMP_pressure;BME280_temperature;BME280_humidity;BME280_pressure;Samples;Min_cycle;Max_cycle;Signal;HPM_P1;HPM_P2
2022/06/24 00:02:00;;;;;;;16.15;12.18;;;23.10;75.50;;;;;;4976503;28;20503;-80
2022/06/24 00:04:28;;;;;;;15.15;12.07;;;23.10;75.40;;;;;;4960333;28;20078;-80
2022/06/24 00:06:56;;;;;;;17.48;13.30;;;23.10;75.40;;;;;;4976206;28;20151;-80
2022/06/24 00:09:26;;;;;;;14.48;12.20;;;23.10;75.30;;;;;;4960168;28;20133;-81
2022/06/24 00:12:07;;;;;;;18.45;12.52;;;23.00;75.40;;;;;;4945024;28;20031;-80
2022/06/24 00:14:34;;;;;;;14.80;11.90;;;23.00;75.60;;;;;;4976471;28;20058;-81
2022/06/24 00:17:03;;;;;;;13.82;11.07;;;23.00;75.50;;;;;;4960361;28;20395;-81
2022/06/24 00:19:33;;;;;;;14.95;11.48;;;23.00;75.60;;;;;;4960317;28;20050;-80
2022/06/24 00:22:10;;;;;;;16.77;11.77;;;23.00;75.80;;;;;;4960067;28;20081;-80
2022/06/24 00:24:38;;;;;;;15.02;12.85;;;22.90;75.70;;;;;;4959946;28;20265;-80
2022/06/24 00:27:19;;;;;;;20.20;14.07;;;22.90;75.80;;;;;;4975972;28;20061;-80
2022/06/24 00:29:46;;;;;;;16.63;14.35;;;22.80;76.20;;;;;;4959855;28;20047;-80
2022/06/24 00:32:12;;;;;;;21.42;14.00;;;22.80;76.30;;;;;;4959888;28;20039;-81
2022/06/24 00:34:39;;;;;;;18.92;12.90;;;22.80;76.40;;;;;;4927951;28;20035;-81
2022/06/24 00:37:25;;;;;;;14.98;13.40;;;22.80;76.10;;;;;;4928377;28;20046;-80
2022/06/24 00:40:09;;;;;;;19.10;15.88;;;22.80;76.20;;;;;;4959694;28;20078;-80
2022/06/24 00:42:40;;;;;;;18.38;15.90;;;22.70;76.20;;;;;;4975792;28;20039;-82
2022/06/24 00:45:29;;;;;;;18.77;16.85;;;22.70;76.50;;;;;;4959612;28;20113;-80
2022/06/24 00:47:56;;;;;;;19.25;17.05;;;22.60;76.80;;;;;;4958307;28;20046;-80
2022/06/24 00:50:25;;;;;;;21.05;16.45;;;22.50;76.80;;;;;;4943486;28;20134;-81
2022/06/24 00:52:56;;;;;;;19.90;17.80;;;22.50;77.20;;;;;;4959436;28;20529;-81
2022/06/24 00:55:29;;;;;;;17.33;15.20;;;22.50;77.40;;;;;;4975555;28;20046;-81
2022/06/24 00:57:56;;;;;;;19.23;17.25;;;22.40;77.80;;;;;;4976412;28;20105;-81
2022/06/24 01:00:27;;;;;;;17.90;16.08;;;22.40;77.70;;;;;;4975337;28;20043;-81
2022/06/24 01:03:01;;;;;;;16.70;14.95;;;22.30;77.90;;;;;;4959047;28;20039;-80
2022/06/24 01:05:28;;;;;;;19.00;17.13;;;22.30;77.90;;;;;;4959440;28;20061;-80
2022/06/24 01:07:55;;;;;;;19.13;17.13;;;22.20;78.00;;;;;;4958933;28;20426;-82
2022/06/24 01:10:21;;;;;;;21.92;18.65;;;22.20;78.00;;;;;;4959078;28;20105;-80
2022/06/24 01:12:47;;;;;;;22.02;19.58;;;22.10;78.10;;;;;;4975089;28;20053;-81
2022/06/24 01:15:13;;;;;;;20.30;18.17;;;22.00;78.40;;;;;;4943066;28;20058;-81
2022/06/24 01:17:39;;;;;;;24.90;20.25;;;21.90;78.80;;;;;;4958888;28;20035;-82
2022/06/24 01:20:09;;;;;;;19.65;17.55;;;21.80;79.00;;;;;;4943428;28;20078;-81
2022/06/24 01:22:35;;;;;;;21.17;19.13;;;21.80;79.30;;;;;;4943191;28;20515;-79
2022/06/24 01:25:01;;;;;;;16.83;15.10;;;21.80;79.60;;;;;;4958806;28;20047;-80
2022/06/24 01:27:27;;;;;;;17.17;15.48;;;21.80;79.70;;;;;;4958917;28;20043;-81
2022/06/24 01:29:53;;;;;;;22.00;18.48;;;21.70;79.50;;;;;;4958688;28;20046;-80
2022/06/24 01:32:19;;;;;;;18.67;16.75;;;21.70;79.50;;;;;;4926965;28;20039;-82
2022/06/24 01:34:45;;;;;;;20.73;18.35;;;21.70;79.60;;;;;;4958996;28;20391;-81
2022/06/24 01:37:11;;;;;;;18.98;17.05;;;21.70;79.70;;;;;;4974776;28;20045;-80
2022/06/24 01:39:37;;;;;;;21.63;19.48;;;21.60;79.80;;;;;;4958558;28;20050;-80
2022/06/24 01:42:03;;;;;;;22.50;19.38;;;21.70;80.00;;;;;;4974692;28;20039;-80
2022/06/24 01:44:28;;;;;;;23.23;18.15;;;21.60;80.10;;;;;;4942731;28;20042;-80
2022/06/24 01:46:54;;;;;;;20.05;16.48;;;21.50;80.20;;;;;;4958452;28;20509;-79
2022/06/24 01:49:20;;;;;;;18.50;16.27;;;21.60;80.50;;;;;;4958470;28;20043;-79
2022/06/24 01:51:50;;;;;;;19.10;15.65;;;21.60;80.70;;;;;;4974831;28;20427;-80
2022/06/24 01:54:16;;;;;;;18.38;16.23;;;21.50;81.20;;;;;;4974438;28;20077;-80
2022/06/24 01:56:42;;;;;;;18.92;17.13;;;21.50;80.70;;;;;;4958362;28;20073;-80
2022/06/24 01:59:07;;;;;;;20.35;17.60;;;21.50;80.90;;;;;;4942255;28;20499;-79
2022/06/24 02:01:33;;;;;;;20.42;17.63;;;21.50;81.00;;;;;;4958560;28;20487;-81
2022/06/24 02:03:59;;;;;;;21.90;18.98;;;21.50;81.10;;;;;;4942078;28;20035;-80
2022/06/24 02:06:25;;;;;;;20.15;18.13;;;21.50;81.40;;;;;;4926388;28;20183;-81
2022/06/24 02:08:51;;;;;;;20.30;17.80;;;21.50;81.50;;;;;;4941906;28;20047;-81
2022/06/24 02:14:07;;;;;;;21.92;18.02;;;21.50;81.70;;;;;;4957934;28;20043;-80
2022/06/24 02:16:34;;;;;;;21.50;16.65;;;21.40;81.50;;;;;;4957950;28;20042;-80
2022/06/24 02:18:59;;;;;;;19.10;16.90;;;21.40;81.60;;;;;;4957974;28;20058;-81
2022/06/24 02:21:26;;;;;;;20.92;18.10;;;21.50;81.60;;;;;;4942228;28;20043;-80
2022/06/24 02:23:52;;;;;;;20.08;17.70;;;21.50;81.80;;;;;;4958000;28;20376;-80
2022/06/24 02:26:19;;;;;;;22.25;16.75;;;21.50;81.70;;;;;;4957844;28;20074;-80
2022/06/24 02:28:44;;;;;;;18.95;16.13;;;21.50;81.70;;;;;;4942033;28;20047;-80
2022/06/24 02:31:10;;;;;;;20.65;17.38;;;21.50;81.80;;;;;;4941884;28;20037;-81
2022/06/24 02:33:36;;;;;;;19.38;16.08;;;21.50;81.80;;;;;;4941834;28;20047;-79
2022/06/24 02:36:03;;;;;;;19.60;16.85;;;21.50;81.70;;;;;;4957875;28;20039;-79
2022/06/24 02:38:29;;;;;;;20.80;16.55;;;21.50;81.70;;;;;;4957683;28;20078;-80
2022/06/24 02:40:55;;;;;;;23.63;16.10;;;21.50;81.90;;;;;;4957841;28;20077;-81
2022/06/24 02:43:26;;;;;;;20.70;16.05;;;21.50;81.80;;;;;;4957809;28;20466;-80
2022/06/24 02:45:54;;;;;;;19.73;15.52;;;21.40;81.80;;;;;;4973716;28;20089;-80
2022/06/24 02:48:21;;;;;;;17.65;14.82;;;21.50;81.70;;;;;;4957502;28;20045;-80
2022/06/24 02:50:50;;;;;;;18.65;15.55;;;21.50;81.70;;;;;;4941585;28;20478;-80
2022/06/24 02:53:17;;;;;;;19.70;17.58;;;21.50;81.70;;;;;;4973759;28;20035;-80
2022/06/24 02:55:44;;;;;;;23.80;16.60;;;21.50;81.60;;;;;;4957507;28;20491;-79
2022/06/24 02:58:10;;;;;;;21.08;16.23;;;21.40;81.70;;;;;;4957623;28;20082;-80
2022/06/24 03:00:36;;;;;;;21.45;16.98;;;21.40;81.80;;;;;;4957252;28;20509;-81
2022/06/24 03:03:02;;;;;;;24.17;18.05;;;21.40;82.10;;;;;;4957185;28;20042;-81
2022/06/24 03:05:28;;;;;;;19.33;17.08;;;21.40;82.20;;;;;;4957285;28;20051;-81
2022/06/24 03:07:54;;;;;;;19.02;17.13;;;21.40;82.20;;;;;;4972790;28;20377;-80
2022/06/24 03:10:21;;;;;;;18.20;16.42;;;21.30;82.40;;;;;;4957650;28;20427;-79
2022/06/24 03:12:46;;;;;;;18.52;16.63;;;21.30;82.30;;;;;;4961041;28;20050;-80
2022/06/24 03:15:12;;;;;;;20.80;16.83;;;21.30;82.30;;;;;;4929422;28;20046;-80
2022/06/24 03:17:39;;;;;;;21.55;18.60;;;21.30;82.30;;;;;;4929739;28;20043;-81
2022/06/24 03:20:06;;;;;;;21.15;18.10;;;21.30;82.30;;;;;;4961441;28;20050;-82
2022/06/24 03:22:32;;;;;;;19.23;17.20;;;21.30;82.40;;;;;;4945233;28;20054;-81
2022/06/24 03:24:57;;;;;;;20.58;17.02;;;21.30;82.50;;;;;;4977096;28;20046;-80
2022/06/24 03:27:23;;;;;;;18.90;16.45;;;21.30;82.60;;;;;;4945142;28;20045;-80
2022/06/24 03:29:49;;;;;;;21.00;16.90;;;21.20;82.60;;;;;;4945127;28;20042;-80
2022/06/24 03:32:14;;;;;;;19.10;17.08;;;21.30;82.80;;;;;;4945017;28;20507;-79
2022/06/24 03:34:40;;;;;;;26.77;20.23;;;21.10;83.90;;;;;;4960968;28;20035;-80
2022/06/24 03:37:06;;;;;;;18.83;17.00;;;21.00;83.90;;;;;;4960877;28;20047;-80
2022/06/24 03:39:32;;;;;;;18.35;16.40;;;20.90;83.80;;;;;;4944972;28;20043;-80
2022/06/24 03:41:57;;;;;;;26.67;17.50;;;20.90;83.50;;;;;;4945187;28;20101;-81
2022/06/24 03:44:23;;;;;;;21.17;18.10;;;21.00;83.40;;;;;;4929000;28;20506;-79
2022/06/24 03:46:49;;;;;;;25.27;17.75;;;21.00;83.40;;;;;;4977046;28;20062;-80
2022/06/24 03:49:15;;;;;;;22.50;18.92;;;21.10;83.50;;;;;;4976879;28;20054;-80
2022/06/24 03:51:41;;;;;;;23.83;19.40;;;21.20;83.50;;;;;;4960654;28;20050;-80
2022/06/24 03:54:07;;;;;;;24.85;19.55;;;21.20;83.90;;;;;;4944831;28;20416;-80
2022/06/24 03:56:33;;;;;;;22.85;19.83;;;21.20;84.40;;;;;;4976689;28;20039;-79
2022/06/24 03:59:02;;;;;;;22.40;20.10;;;21.10;84.40;;;;;;4945005;28;20043;-81
2022/06/24 04:01:28;;;;;;;22.70;20.27;;;21.10;84.60;;;;;;4928574;28;20050;-81
2022/06/24 04:03:53;;;;;;;23.50;20.60;;;21.00;85.00;;;;;;4944369;28;20034;-80
2022/06/24 04:06:19;;;;;;;29.98;22.23;;;21.10;85.10;;;;;;4976745;28;20043;-79
2022/06/24 04:08:45;;;;;;;24.23;21.65;;;21.20;85.20;;;;;;4944182;28;20138;-82
2022/06/24 04:11:12;;;;;;;26.00;23.20;;;21.20;85.80;;;;;;4976568;28;20510;-80
2022/06/24 04:13:38;;;;;;;29.77;22.38;;;21.20;85.60;;;;;;4944508;28;20615;-80
2022/06/24 04:16:04;;;;;;;23.52;17.08;;;21.20;85.40;;;;;;4944728;28;20051;-81
2022/06/24 04:18:30;;;;;;;23.85;13.65;;;21.20;85.20;;;;;;4960672;28;20039;-81
2022/06/24 04:20:56;;;;;;;28.40;11.40;;;21.20;85.50;;;;;;4960219;28;20101;-79
2022/06/24 04:23:21;;;;;;;30.40;11.13;;;21.10;85.70;;;;;;4929924;28;20070;-79
2022/06/24 04:25:48;;;;;;;18.73;9.40;;;21.00;85.50;;;;;;4995650;28;20038;-78
2022/06/24 04:28:13;;;;;;;19.35;9.45;;;20.90;86.30;;;;;;4979576;28;20050;-80
2022/06/24 04:30:39;;;;;;;12.57;7.88;;;20.70;86.20;;;;;;4980478;28;20042;-80
2022/06/24 04:33:05;;;;;;;16.20;6.78;;;20.50;86.90;;;;;;4982089;28;20157;-79
2022/06/24 04:35:31;;;;;;;9.93;7.25;;;20.50;87.10;;;;;;4980629;28;20383;-79
2022/06/24 04:37:56;;;;;;;12.18;6.97;;;20.40;87.20;;;;;;4963412;28;20042;-82
2022/06/24 04:40:22;;;;;;;9.57;6.10;;;20.20;87.60;;;;;;4978981;28;20053;-80
2022/06/24 04:42:48;;;;;;;7.20;4.75;;;20.10;87.50;;;;;;4962753;28;20042;-81
2022/06/24 04:45:14;;;;;;;8.35;5.13;;;20.10;87.20;;;;;;4946913;28;20409;-80
2022/06/24 04:47:40;;;;;;;7.00;4.95;;;20.10;86.90;;;;;;4979230;28;20046;-82
2022/06/24 04:50:06;;;;;;;4.85;4.18;;;20.10;87.20;;;;;;4978949;28;20461;-80
2022/06/24 04:52:32;;;;;;;8.95;4.30;;;20.10;88.10;;;;;;4962739;28;20478;-79
2022/06/24 04:54:59;;;;;;;5.75;4.53;;;20.00;88.20;;;;;;4979010;28;20046;-81
2022/06/24 04:57:25;;;;;;;8.18;4.68;;;20.00;88.20;;;;;;4978798;28;20486;-79
2022/06/24 04:59:51;;;;;;;7.30;4.80;;;19.90;88.40;;;;;;4962615;28;20043;-81
2022/06/24 05:02:16;;;;;;;6.00;4.43;;;20.00;88.10;;;;;;4962691;28;20077;-81
2022/06/24 05:04:43;;;;;;;6.53;4.70;;;20.00;88.30;;;;;;4946597;28;20406;-80
2022/06/24 05:07:08;;;;;;;6.65;4.65;;;20.10;88.40;;;;;;4962588;28;20054;-80
2022/06/24 05:09:34;;;;;;;8.32;5.45;;;20.10;88.40;;;;;;4962483;28;20486;-81
2022/06/24 05:12:01;;;;;;;5.88;5.07;;;20.10;88.30;;;;;;4962559;28;20049;-81
2022/06/24 05:14:30;;;;;;;9.82;6.07;;;20.00;88.60;;;;;;4978370;28;20046;-79
2022/06/24 05:16:57;;;;;;;7.80;5.50;;;20.00;89.20;;;;;;4946602;28;20046;-80
2022/06/24 05:19:23;;;;;;;13.88;6.28;;;20.00;89.10;;;;;;4978663;28;20046;-76
2022/06/24 05:21:48;;;;;;;8.23;5.25;;;19.90;89.40;;;;;;4978383;28;20038;-79
2022/06/24 05:24:14;;;;;;;9.82;6.00;;;19.90;89.30;;;;;;4962048;28;20057;-79
2022/06/24 05:26:41;;;;;;;12.43;6.03;;;19.80;89.50;;;;;;4978096;28;20053;-76
2022/06/24 05:29:08;;;;;;;9.60;5.28;;;19.70;89.30;;;;;;4978059;28;20482;-77
2022/06/24 05:31:34;;;;;;;9.93;5.05;;;19.70;89.30;;;;;;4977727;28;20042;-76
2022/06/24 05:34:03;;;;;;;11.20;5.43;;;19.80;89.30;;;;;;4977136;28;20049;-77
2022/06/24 05:36:29;;;;;;;6.68;4.85;;;19.80;89.40;;;;;;4977999;28;20470;-80
2022/06/24 05:38:54;;;;;;;10.43;5.25;;;19.80;89.50;;;;;;4946085;28;20080;-76
2022/06/24 05:41:20;;;;;;;8.43;4.88;;;19.90;89.10;;;;;;4961747;28;20557;-80
2022/06/24 05:43:46;;;;;;;7.32;4.82;;;20.00;89.40;;;;;;4977967;28;20053;-77
2022/06/24 05:46:13;;;;;;;8.07;4.95;;;20.10;89.50;;;;;;4978148;28;20046;-78
2022/06/24 05:48:39;;;;;;;7.93;4.82;;;20.10;89.70;;;;;;4961665;28;20042;-79
2022/06/24 05:51:15;;;;;;;10.23;5.63;;;20.10;89.40;;;;;;4977892;28;20092;-79
2022/06/24 05:56:27;;;;;;;7.63;3.60;;;20.20;89.40;;;;;;4978195;28;20501;-77
2022/06/24 05:58:53;;;;;;;7.20;4.15;;;20.10;88.60;;;;;;4977996;28;20420;-78
2022/06/24 06:01:19;;;;;;;6.20;3.53;;;20.00;89.20;;;;;;4961625;28;20039;-76
2022/06/24 06:03:45;;;;;;;9.75;4.18;;;19.90;88.80;;;;;;4977576;28;20045;-75
2022/06/24 06:06:11;;;;;;;9.32;4.40;;;19.90;89.00;;;;;;4977505;28;20042;-77
2022/06/24 06:08:37;;;;;;;5.88;3.55;;;19.90;89.10;;;;;;4977186;28;20062;-77
2022/06/24 06:11:17;;;;;;;7.10;3.95;;;19.80;88.60;;;;;;4953675;28;20046;-79
2022/06/24 06:13:44;;;;;;;8.40;4.40;;;19.80;88.80;;;;;;4964790;28;20042;-77
2022/06/24 06:16:10;;;;;;;7.68;4.32;;;19.70;89.10;;;;;;4969305;28;20034;-76
2022/06/24 06:18:36;;;;;;;11.70;4.97;;;19.70;89.10;;;;;;4954108;28;20076;-79
2022/06/24 06:21:05;;;;;;;6.10;4.35;;;19.70;89.50;;;;;;4955685;28;20121;-76
2022/06/24 06:23:31;;;;;;;6.53;4.78;;;19.70;89.70;;;;;;4995182;28;20403;-76
2022/06/24 06:25:58;;;;;;;8.25;5.60;;;19.60;89.70;;;;;;4973552;28;20548;-78
2022/06/24 06:28:25;;;;;;;8.35;5.18;;;19.50;89.70;;;;;;4972598;28;20042;-77
2022/06/24 06:30:51;;;;;;;8.50;5.50;;;19.50;89.80;;;;;;4972023;28;20088;-78
2022/06/24 06:33:17;;;;;;;10.52;6.50;;;19.50;89.70;;;;;;4973276;28;20482;-77
2022/06/24 06:35:43;;;;;;;11.25;6.70;;;19.50;89.90;;;;;;4983256;28;20038;-78
2022/06/24 06:38:08;;;;;;;12.25;6.55;;;19.50;89.90;;;;;;4972131;28;20726;-81
2022/06/24 06:40:35;;;;;;;13.63;6.63;;;19.50;89.80;;;;;;4971797;28;20064;-79
2022/06/24 06:43:01;;;;;;;10.70;7.40;;;19.50;90.20;;;;;;4956110;28;20061;-80
2022/06/24 06:45:28;;;;;;;9.63;8.00;;;19.50;90.20;;;;;;4940557;28;20053;-78
2022/06/24 06:47:53;;;;;;;12.32;8.18;;;19.60;90.10;;;;;;4957099;28;20058;-79
2022/06/24 06:50:19;;;;;;;11.57;7.80;;;19.60;90.30;;;;;;4971327;28;20045;-78
2022/06/24 06:52:45;;;;;;;10.38;8.85;;;19.60;90.30;;;;;;4957204;28;20038;-82
2022/06/24 06:55:11;;;;;;;9.10;7.93;;;19.60;90.30;;;;;;4956268;28;20070;-78
2022/06/24 06:57:37;;;;;;;9.40;8.48;;;19.60;90.40;;;;;;4955695;28;20050;-79
2022/06/24 07:00:07;;;;;;;8.68;7.72;;;19.60;90.50;;;;;;4970529;28;20054;-80
2022/06/24 07:02:33;;;;;;;9.25;8.32;;;19.70;90.50;;;;;;4997084;28;20060;-79
2022/06/24 07:04:58;;;;;;;9.07;7.60;;;19.70;89.90;;;;;;4925586;28;20042;-81
2022/06/24 07:07:24;;;;;;;9.88;7.95;;;19.70;89.60;;;;;;4957027;28;20086;-78
2022/06/24 07:09:51;;;;;;;13.10;10.57;;;19.70;89.40;;;;;;4956361;28;20498;-79
2022/06/24 07:12:17;;;;;;;10.50;9.10;;;19.70;89.40;;;;;;4926081;28;20042;-80
2022/06/24 07:14:43;;;;;;;11.18;9.20;;;19.80;89.60;;;;;;4973275;28;20043;-80
2022/06/24 07:17:09;;;;;;;13.63;9.63;;;19.80;89.60;;;;;;4957554;28;20056;-79
2022/06/24 07:19:36;;;;;;;10.90;9.80;;;19.80;89.70;;;;;;4972479;28;20054;-80
2022/06/24 07:22:02;;;;;;;13.57;12.15;;;19.90;89.70;;;;;;4980257;28;20074;-79
2022/06/24 07:24:28;;;;;;;13.52;10.88;;;19.90;89.50;;;;;;4941807;28;20043;-79
2022/06/24 07:26:53;;;;;;;17.55;11.25;;;19.90;89.60;;;;;;4956600;28;20074;-80
2022/06/24 07:29:19;;;;;;;14.20;12.27;;;19.90;89.60;;;;;;4972401;28;20046;-79
2022/06/24 07:31:47;;;;;;;16.85;11.50;;;19.90;89.60;;;;;;4972664;28;20042;-80
2022/06/24 07:34:14;;;;;;;14.98;11.50;;;19.90;89.50;;;;;;4957646;28;20042;-79
2022/06/24 07:36:40;;;;;;;13.48;11.57;;;19.90;89.60;;;;;;4998793;28;20034;-79
2022/06/24 07:39:06;;;;;;;13.02;11.65;;;19.90;89.60;;;;;;4972559;28;20073;-80
2022/06/24 07:41:32;;;;;;;13.07;10.13;;;19.90;89.60;;;;;;4939761;28;20052;-80
2022/06/24 07:43:57;;;;;;;12.75;11.35;;;20.00;89.60;;;;;;4941191;28;20042;-83
2022/06/24 07:46:23;;;;;;;16.83;13.02;;;20.00;89.70;;;;;;4994376;28;20046;-82
2022/06/24 07:48:49;;;;;;;14.60;13.10;;;20.00;89.80;;;;;;4980071;28;20130;-80
2022/06/24 07:51:16;;;;;;;14.20;12.68;;;20.00;89.70;;;;;;4954489;28;20046;-82
2022/06/24 07:53:46;;;;;;;14.38;12.88;;;20.10;89.90;;;;;;4971791;28;20117;-82
2022/06/24 07:58:59;;;;;;;14.85;11.45;;;20.20;89.90;;;;;;4964024;28;20453;-84
2022/06/24 08:01:25;;;;;;;14.02;12.18;;;20.30;90.10;;;;;;4943849;28;20048;-82
2022/06/24 08:03:51;;;;;;;13.05;11.25;;;20.30;90.20;;;;;;4962810;28;20081;-82
2022/06/24 08:06:17;;;;;;;17.75;12.23;;;20.40;90.00;;;;;;4964690;28;20062;-80
2022/06/24 08:08:43;;;;;;;14.13;11.32;;;20.40;90.00;;;;;;4959735;28;20468;-78
2022/06/24 08:11:08;;;;;;;11.50;9.15;;;20.40;89.90;;;;;;4960424;28;20043;-78
2022/06/24 08:13:34;;;;;;;13.57;10.20;;;20.40;89.90;;;;;;4946833;28;20035;-80
2022/06/24 08:16:00;;;;;;;11.13;9.75;;;20.40;89.50;;;;;;4977935;28;20038;-78
2022/06/24 08:18:27;;;;;;;10.02;9.02;;;20.40;89.20;;;;;;4978127;28;20417;-79
2022/06/24 08:20:53;;;;;;;10.63;9.32;;;20.40;89.20;;;;;;4962809;28;20046;-81
2022/06/24 08:23:19;;;;;;;12.07;10.40;;;20.30;89.00;;;;;;4978819;28;20081;-79
2022/06/24 08:25:45;;;;;;;17.25;10.95;;;20.30;89.00;;;;;;4979334;28;20386;-82
2022/06/24 08:28:10;;;;;;;13.00;10.60;;;20.20;89.00;;;;;;4962900;28;20038;-77
2022/06/24 08:30:36;;;;;;;12.43;10.52;;;20.20;89.10;;;;;;4962691;28;20074;-77
2022/06/24 08:33:02;;;;;;;12.55;9.85;;;20.20;89.40;;;;;;4995093;28;20104;-79
2022/06/24 08:35:28;;;;;;;11.43;8.85;;;20.10;89.40;;;;;;4979310;28;20045;-78
2022/06/24 08:37:55;;;;;;;13.55;10.18;;;20.00;89.20;;;;;;4962676;28;20129;-78
2022/06/24 08:40:22;;;;;;;13.05;10.65;;;19.90;89.60;;;;;;4978747;28;20046;-79
2022/06/24 08:42:55;;;;;;;12.13;9.32;;;19.90;89.60;;;;;;4978756;28;20100;-82
2022/06/24 08:45:22;;;;;;;8.80;7.65;;;19.80;89.50;;;;;;4962687;28;20101;-79
2022/06/24 08:47:49;;;;;;;8.10;5.07;;;19.70;89.30;;;;;;4978851;28;20438;-77
2022/06/24 08:50:16;;;;;;;6.45;4.35;;;19.60;89.20;;;;;;4978511;28;20593;-78
2022/06/24 08:52:52;;;;;;;8.00;5.07;;;19.50;88.90;;;;;;4978797;28;20491;-78
2022/06/24 08:55:20;;;;;;;8.25;5.85;;;19.40;88.90;;;;;;4978576;28;20039;-80
2022/06/24 08:57:46;;;;;;;10.50;6.05;;;19.30;89.10;;;;;;4946283;28;20038;-79
2022/06/24 09:00:13;;;;;;;7.90;6.10;;;19.30;89.40;;;;;;4978546;28;20050;-78
2022/06/24 09:02:39;;;;;;;9.18;6.63;;;19.30;89.40;;;;;;4978239;28;20057;-80
2022/06/24 09:05:09;;;;;;;8.63;6.32;;;19.20;89.50;;;;;;4946201;28;20042;-78
2022/06/24 09:07:35;;;;;;;8.93;7.00;;;19.30;89.50;;;;;;4977177;28;20054;-81
2022/06/24 09:10:09;;;;;;;9.07;5.63;;;19.30;89.50;;;;;;4977657;28;20057;-77
2022/06/24 09:12:43;;;;;;;7.40;5.15;;;19.30;90.00;;;;;;4994290;28;20185;-80
2022/06/24 09:15:11;;;;;;;9.18;5.95;;;19.30;89.60;;;;;;4977910;28;20074;-80
2022/06/24 09:17:38;;;;;;;7.63;5.43;;;19.20;89.60;;;;;;4978169;28;20042;-80
2022/06/24 09:20:08;;;;;;;6.53;5.38;;;19.20;89.60;;;;;;4978090;28;20034;-81
2022/06/24 09:22:34;;;;;;;7.53;6.00;;;19.20;90.00;;;;;;4961975;28;20046;-78
2022/06/24 09:25:03;;;;;;;7.90;5.25;;;19.20;89.80;;;;;;4961562;28;20509;-80
2022/06/24 09:27:29;;;;;;;7.07;4.18;;;19.20;89.90;;;;;;4961628;28;20427;-81
2022/06/24 09:29:55;;;;;;;6.00;4.70;;;19.10;89.90;;;;;;4961691;28;20034;-80
2022/06/24 09:32:21;;;;;;;5.07;3.65;;;19.10;89.80;;;;;;4977971;28;20446;-81
2022/06/24 09:35:00;;;;;;;5.78;4.30;;;19.10;89.80;;;;;;4977504;28;20053;-81
2022/06/24 09:37:37;;;;;;;6.82;4.40;;;19.00;89.70;;;;;;4961820;28;20108;-83
2022/06/24 09:40:27;;;;;;;5.85;4.20;;;19.00;89.70;;;;;;4961627;28;20113;-80
2022/06/24 09:43:09;;;;;;;8.00;4.10;;;19.00;89.70;;;;;;4988767;28;20054;-79
2022/06/24 09:45:53;;;;;;;4.45;3.60;;;19.00;89.80;;;;;;4977402;28;20128;-81
2022/06/24 09:48:34;;;;;;;5.45;3.53;;;19.00;89.70;;;;;;4977371;28;20050;-78
2022/06/24 09:51:02;;;;;;;3.78;3.03;;;19.00;89.60;;;;;;4961204;28;20042;-79
2022/06/24 09:53:32;;;;;;;5.10;3.67;;;19.00;89.50;;;;;;4977102;28;20042;-78
2022/06/24 09:55:59;;;;;;;5.35;3.63;;;19.00;89.30;;;;;;4946055;28;20394;-79
2022/06/24 09:58:25;;;;;;;10.23;4.28;;;19.00;89.30;;;;;;4961293;28;20039;-80
2022/06/24 10:00:51;;;;;;;7.07;4.68;;;19.00;89.20;;;;;;4961379;28;20048;-80
2022/06/24 10:03:17;;;;;;;6.05;3.90;;;19.00;89.00;;;;;;4976969;28;20081;-79
2022/06/24 10:05:49;;;;;;;7.18;3.88;;;19.00;88.90;;;;;;4977261;28;20049;-80
2022/06/24 10:08:20;;;;;;;7.32;4.78;;;19.00;89.10;;;;;;4976894;28;20046;-80
2022/06/24 10:10:49;;;;;;;4.70;3.17;;;19.00;89.10;;;;;;4993057;28;20042;-79
2022/06/24 10:13:24;;;;;;;6.97;3.63;;;19.00;89.10;;;;;;4960619;28;20509;-80
2022/06/24 10:15:51;;;;;;;5.03;3.63;;;19.00;89.20;;;;;;4977185;28;20434;-81
2022/06/24 10:18:20;;;;;;;5.50;4.07;;;19.00;89.10;;;;;;4945048;28;20074;-82
2022/06/24 10:20:47;;;;;;;4.15;3.75;;;19.00;89.10;;;;;;4976484;28;20054;-82
2022/06/24 10:23:43;;;;;;;4.93;3.80;;;19.10;89.10;;;;;;4960786;28;20125;-74
2022/06/24 10:26:21;;;;;;;6.13;4.07;;;19.10;89.30;;;;;;4976762;28;20046;-82
2022/06/24 10:28:59;;;;;;;5.55;4.15;;;19.10;89.50;;;;;;4960551;28;20042;-79
2022/06/24 10:31:50;;;;;;;5.93;4.35;;;19.10;89.60;;;;;;4960575;28;20446;-79
2022/06/24 10:34:31;;;;;;;8.02;5.75;;;19.00;89.80;;;;;;4976764;28;20454;-80
2022/06/24 10:36:56;;;;;;;9.27;6.65;;;19.10;90.00;;;;;;4976867;28;20045;-80
2022/06/24 10:39:24;;;;;;;9.38;7.47;;;19.00;89.90;;;;;;4976434;28;20448;-81
2022/06/24 10:42:10;;;;;;;10.40;8.40;;;19.20;90.00;;;;;;4960380;28;20046;-80
2022/06/24 10:44:38;;;;;;;9.75;7.68;;;19.30;90.10;;;;;;4976602;28;20042;-80
2022/06/24 10:47:10;;;;;;;10.38;7.45;;;19.40;90.30;;;;;;4976620;28;20545;-79
2022/06/24 10:49:51;;;;;;;12.10;7.88;;;19.50;90.10;;;;;;4976289;28;20073;-80
2022/06/24 10:52:48;;;;;;;10.25;8.82;;;19.60;89.70;;;;;;4976273;28;20045;-79
2022/06/24 10:57:45;;;;;;;11.73;9.82;;;19.70;89.50;;;;;;4976523;28;20038;-79
2022/06/24 11:00:12;;;;;;;11.80;9.13;;;19.80;89.00;;;;;;4976257;28;20133;-80
2022/06/24 11:02:38;;;;;;;13.68;11.00;;;19.80;89.20;;;;;;4976169;28;20050;-80
2022/06/24 11:05:08;;;;;;;11.75;10.52;;;19.90;89.20;;;;;;4976208;28;20065;-80
2022/06/24 11:07:33;;;;;;;13.30;11.02;;;19.90;89.10;;;;;;4975990;28;20093;-80
2022/06/24 11:09:59;;;;;;;13.52;11.02;;;19.90;89.10;;;;;;4976243;28;20085;-79
2022/06/24 11:12:29;;;;;;;14.57;11.80;;;20.00;88.50;;;;;;4944063;28;20035;-80
2022/06/24 11:14:55;;;;;;;16.83;12.43;;;20.10;88.40;;;;;;4976005;28;20049;-80
2022/06/24 11:17:25;;;;;;;13.85;11.65;;;20.20;88.30;;;;;;4976053;28;20042;-80
2022/06/24 11:19:52;;;;;;;13.90;12.18;;;20.20;87.60;;;;;;4944086;28;20049;-80
2022/06/24 11:22:18;;;;;;;13.48;12.10;;;20.20;87.60;;;;;;4959834;28;20121;-80
2022/06/24 11:24:47;;;;;;;15.07;13.50;;;20.20;87.10;;;;;;4976173;28;20465;-81
2022/06/24 11:27:13;;;;;;;14.70;13.20;;;20.30;87.40;;;;;;4975916;28;20108;-80
2022/06/24 11:29:53;;;;;;;15.80;14.07;;;20.40;87.40;;;;;;4975816;28;20050;-81
2022/06/24 11:32:20;;;;;;;17.08;13.32;;;20.40;87.40;;;;;;4962753;28;20042;-82
2022/06/24 11:34:48;;;;;;;18.60;15.60;;;20.50;87.30;;;;;;4996018;28;20046;-80
2022/06/24 11:37:17;;;;;;;18.02;14.95;;;20.60;87.20;;;;;;4948379;28;20046;-80
2022/06/24 11:39:42;;;;;;;16.77;13.95;;;20.60;87.00;;;;;;4979709;28;20485;-80
2022/06/24 11:42:08;;;;;;;20.20;14.63;;;20.70;86.50;;;;;;4947889;28;20177;-80
2022/06/24 11:44:36;;;;;;;20.25;15.10;;;20.70;85.30;;;;;;4979799;28;20038;-80
2022/06/24 11:47:05;;;;;;;17.75;15.02;;;20.70;85.70;;;;;;4963479;28;20053;-80
2022/06/24 11:49:32;;;;;;;21.80;15.75;;;20.70;86.00;;;;;;4963448;28;20046;-82
2022/06/24 11:52:02;;;;;;;20.63;17.17;;;20.70;85.90;;;;;;4979742;28;20046;-82
2022/06/24 11:54:29;;;;;;;20.17;17.38;;;20.70;86.10;;;;;;4995561;28;20042;-81
2022/06/24 11:56:56;;;;;;;20.02;17.73;;;20.80;86.20;;;;;;4963335;28;20549;-82
2022/06/24 11:59:23;;;;;;;23.30;19.42;;;20.90;85.60;;;;;;4979371;28;20042;-81
2022/06/24 12:01:50;;;;;;;21.35;18.50;;;20.90;85.50;;;;;;4979338;28;20108;-80
2022/06/24 12:04:17;;;;;;;23.20;20.88;;;20.90;85.00;;;;;;4963402;28;20046;-80
2022/06/24 12:06:44;;;;;;;26.17;21.48;;;21.00;85.10;;;;;;4995455;28;20077;-81
2022/06/24 12:09:10;;;;;;;27.17;21.88;;;21.10;84.90;;;;;;4978909;28;20054;-80
2022/06/24 12:11:42;;;;;;;26.95;22.30;;;21.20;84.50;;;;;;4979144;28;20134;-80
2022/06/24 12:14:09;;;;;;;24.95;22.45;;;21.20;84.40;;;;;;4979046;28;20375;-80
2022/06/24 12:16:56;;;;;;;27.58;24.73;;;21.30;84.30;;;;;;4963167;28;20130;-80
2022/06/24 12:19:22;;;;;;;29.08;24.73;;;21.40;83.70;;;;;;4979036;28;20053;-81
2022/06/24 12:21:47;;;;;;;26.55;24.05;;;21.20;83.70;;;;;;4978891;28;20046;-81
2022/06/24 12:24:21;;;;;;;24.80;22.33;;;21.20;83.70;;;;;;4946970;28;20038;-80
2022/06/24 12:26:47;;;;;;;25.95;23.38;;;21.20;83.40;;;;;;4962905;28;20524;-80
2022/06/24 12:29:13;;;;;;;26.85;23.90;;;21.20;83.10;;;;;;4978951;28;20042;-80
2022/06/24 12:31:49;;;;;;;28.20;25.52;;;21.20;83.10;;;;;;4995015;28;20045;-80
2022/06/24 12:34:28;;;;;;;25.70;22.95;;;21.20;83.20;;;;;;4948257;28;20136;-81
2022/06/24 12:37:02;;;;;;;27.92;24.95;;;21.20;83.40;;;;;;4962894;28;20038;-81
2022/06/24 12:39:29;;;;;;;;;;;21.30;83.40;;;;;;4979127;28;20042;-80
2022/06/24 12:41:55;;;;;;;25.80;23.20;;;21.20;83.30;;;;;;4978770;28;20292;-81
2022/06/24 12:44:21;;;;;;;24.50;22.02;;;21.30;83.40;;;;;;4994709;28;20050;-80
2022/06/24 12:52:39;;;;;;;22.40;19.98;;;21.40;81.90;;;;;;4978498;28;20048;-81
2022/06/24 12:55:10;;;;;;;22.92;20.83;;;21.40;81.80;;;;;;4978467;28;20097;-81